sensor_id;sensor_type;location;lat;lon;timestamp;P1;durP1;ratioP1;P2;durP2;ratioP2
56860;SDS011;42744;51.094;3.490;2023-02-28T00:00:33;9.63;;;5.73;;
56860;SDS011;42744;51.094;3.490;2023-02-28T00:03:01;8.33;;;6.33;;
56860;SDS011;42744;51.094;3.490;2023-02-28T00:05:28;10.47;;;7.73;;
56860;SDS011;42744;51.094;3.490;2023-02-28T00:07:54;11.30;;;8.30;;
56860;SDS011;42744;51.094;3.490;2023-02-28T00:10:23;12.73;;;8.90;;
56860;SDS011;42744;51.094;3.490;2023-02-28T00:12:53;16.37;;;10.17;;
56860;SDS011;42744;51.094;3.490;2023-02-28T00:15:22;13.93;;;10.47;;
56860;SDS011;42744;51.094;3.490;2023-02-28T00:17:49;18.67;;;10.93;;
56860;SDS011;42744;51.094;3.490;2023-02-28T00:20:16;14.87;;;10.67;;
56860;SDS011;42744;51.094;3.490;2023-02-28T00:22:43;17.90;;;11.07;;
56860;SDS011;42744;51.094;3.490;2023-02-28T00:25:11;17.50;;;11.83;;
56860;SDS011;42744;51.094;3.490;2023-02-28T00:27:39;21.47;;;13.23;;
56860;SDS011;42744;51.094;3.490;2023-02-28T00:30:07;21.10;;;13.30;;
56860;SDS011;42744;51.094;3.490;2023-02-28T00:32:36;19.20;;;12.27;;
56860;SDS011;42744;51.094;3.490;2023-02-28T00:35:03;17.10;;;11.13;;
56860;SDS011;42744;51.094;3.490;2023-02-28T00:37:30;16.27;;;9.93;;
56860;SDS011;42744;51.094;3.490;2023-02-28T00:39:56;15.50;;;9.00;;
56860;SDS011;42744;51.094;3.490;2023-02-28T00:42:26;11.20;;;8.20;;
56860;SDS011;42744;51.094;3.490;2023-02-28T00:44:53;12.77;;;8.80;;
56860;SDS011;42744;51.094;3.490;2023-02-28T00:47:19;12.27;;;7.93;;
56860;SDS011;42744;51.094;3.490;2023-02-28T00:49:45;11.47;;;7.77;;
56860;SDS011;42744;51.094;3.490;2023-02-28T00:52:11;8.27;;;7.27;;
56860;SDS011;42744;51.094;3.490;2023-02-28T00:54:37;9.43;;;7.13;;
56860;SDS011;42744;51.094;3.490;2023-02-28T00:57:03;10.67;;;6.97;;
56860;SDS011;42744;51.094;3.490;2023-02-28T00:59:30;11.60;;;7.50;;
56860;SDS011;42744;51.094;3.490;2023-02-28T01:01:56;11.33;;;7.03;;
56860;SDS011;42744;51.094;3.490;2023-02-28T01:04:22;9.13;;;6.70;;
56860;SDS011;42744;51.094;3.490;2023-02-28T01:06:48;9.67;;;6.63;;
56860;SDS011;42744;51.094;3.490;2023-02-28T01:09:14;8.73;;;6.70;;
56860;SDS011;42744;51.094;3.490;2023-02-28T01:11:41;9.17;;;7.27;;
56860;SDS011;42744;51.094;3.490;2023-02-28T01:14:12;11.47;;;7.33;;
56860;SDS011;42744;51.094;3.490;2023-02-28T01:16:39;10.43;;;7.50;;
56860;SDS011;42744;51.094;3.490;2023-02-28T01:19:05;9.10;;;7.10;;
56860;SDS011;42744;51.094;3.490;2023-02-28T01:21:32;8.30;;;6.80;;
56860;SDS011;42744;51.094;3.490;2023-02-28T01:23:58;8.40;;;7.00;;
56860;SDS011;42744;51.094;3.490;2023-02-28T01:26:24;11.10;;;7.60;;
56860;SDS011;42744;51.094;3.490;2023-02-28T01:28:50;11.77;;;7.10;;
56860;SDS011;42744;51.094;3.490;2023-02-28T01:31:18;8.33;;;6.90;;
56860;SDS011;42744;51.094;3.490;2023-02-28T01:33:45;8.23;;;7.00;;
56860;SDS011;42744;51.094;3.490;2023-02-28T01:38:42;10.03;;;6.77;;
56860;SDS011;42744;51.094;3.490;2023-02-28T01:41:09;12.27;;;7.30;;
56860;SDS011;42744;51.094;3.490;2023-02-28T01:46:12;10.37;;;7.13;;
56860;SDS011;42744;51.094;3.490;2023-02-28T01:48:43;10.13;;;6.70;;
56860;SDS011;42744;51.094;3.490;2023-02-28T01:51:13;9.07;;;6.77;;
56860;SDS011;42744;51.094;3.490;2023-02-28T01:53:45;8.77;;;6.77;;
56860;SDS011;42744;51.094;3.490;2023-02-28T01:56:16;8.60;;;6.97;;
56860;SDS011;42744;51.094;3.490;2023-02-28T01:58:50;7.93;;;6.63;;
56860;SDS011;42744;51.094;3.490;2023-02-28T02:01:19;13.00;;;7.17;;
56860;SDS011;42744;51.094;3.490;2023-02-28T02:03:50;8.73;;;6.67;;
56860;SDS011;42744;51.094;3.490;2023-02-28T02:06:25;13.20;;;6.87;;
56860;SDS011;42744;51.094;3.490;2023-02-28T02:08:55;9.70;;;7.07;;
56860;SDS011;42744;51.094;3.490;2023-02-28T02:11:21;10.17;;;6.30;;
56860;SDS011;42744;51.094;3.490;2023-02-28T02:16:58;11.83;;;7.60;;
56860;SDS011;42744;51.094;3.490;2023-02-28T02:25:32;9.87;;;7.00;;
56860;SDS011;42744;51.094;3.490;2023-02-28T02:31:14;8.60;;;6.80;;
56860;SDS011;42744;51.094;3.490;2023-02-28T02:39:38;10.67;;;7.20;;
56860;SDS011;42744;51.094;3.490;2023-02-28T02:42:27;8.80;;;6.80;;
56860;SDS011;42744;51.094;3.490;2023-02-28T02:45:06;12.97;;;7.60;;
56860;SDS011;42744;51.094;3.490;2023-02-28T02:47:37;9.30;;;6.97;;
56860;SDS011;42744;51.094;3.490;2023-02-28T02:50:05;9.70;;;7.60;;
56860;SDS011;42744;51.094;3.490;2023-02-28T02:52:43;10.80;;;8.17;;
56860;SDS011;42744;51.094;3.490;2023-02-28T02:55:14;11.30;;;7.07;;
56860;SDS011;42744;51.094;3.490;2023-02-28T03:00:14;9.63;;;7.00;;
56860;SDS011;42744;51.094;3.490;2023-02-28T03:02:42;12.53;;;7.63;;
56860;SDS011;42744;51.094;3.490;2023-02-28T03:05:20;8.87;;;6.53;;
56860;SDS011;42744;51.094;3.490;2023-02-28T03:07:50;10.00;;;7.10;;
56860;SDS011;42744;51.094;3.490;2023-02-28T03:10:30;11.60;;;6.93;;
56860;SDS011;42744;51.094;3.490;2023-02-28T03:15:48;9.87;;;6.77;;
56860;SDS011;42744;51.094;3.490;2023-02-28T03:18:28;11.23;;;6.43;;
56860;SDS011;42744;51.094;3.490;2023-02-28T03:21:12;11.37;;;6.57;;
56860;SDS011;42744;51.094;3.490;2023-02-28T03:23:48;12.20;;;7.20;;
56860;SDS011;42744;51.094;3.490;2023-02-28T03:26:37;9.43;;;6.50;;
56860;SDS011;42744;51.094;3.490;2023-02-28T03:29:20;11.57;;;6.50;;
56860;SDS011;42744;51.094;3.490;2023-02-28T03:32:08;9.37;;;7.33;;
56860;SDS011;42744;51.094;3.490;2023-02-28T03:35:08;11.47;;;7.10;;
56860;SDS011;42744;51.094;3.490;2023-02-28T03:37:47;10.67;;;7.00;;
56860;SDS011;42744;51.094;3.490;2023-02-28T03:40:19;11.20;;;7.53;;
56860;SDS011;42744;51.094;3.490;2023-02-28T03:42:48;8.67;;;7.13;;
56860;SDS011;42744;51.094;3.490;2023-02-28T03:45:20;12.33;;;7.00;;
56860;SDS011;42744;51.094;3.490;2023-02-28T03:50:24;12.03;;;7.77;;
56860;SDS011;42744;51.094;3.490;2023-02-28T03:55:28;11.03;;;6.43;;
56860;SDS011;42744;51.094;3.490;2023-02-28T03:58:05;12.63;;;7.43;;
56860;SDS011;42744;51.094;3.490;2023-02-28T04:01:04;11.47;;;7.07;;
56860;SDS011;42744;51.094;3.490;2023-02-28T04:03:35;10.00;;;6.90;;
56860;SDS011;42744;51.094;3.490;2023-02-28T04:06:02;9.83;;;7.00;;
56860;SDS011;42744;51.094;3.490;2023-02-28T04:08:29;10.07;;;6.87;;
56860;SDS011;42744;51.094;3.490;2023-02-28T04:11:00;10.13;;;7.17;;
56860;SDS011;42744;51.094;3.490;2023-02-28T04:13:36;8.20;;;6.67;;
56860;SDS011;42744;51.094;3.490;2023-02-28T04:16:06;11.43;;;7.40;;
56860;SDS011;42744;51.094;3.490;2023-02-28T04:18:39;11.97;;;7.03;;
56860;SDS011;42744;51.094;3.490;2023-02-28T04:21:06;9.97;;;6.37;;
56860;SDS011;42744;51.094;3.490;2023-02-28T04:23:32;9.67;;;7.00;;
56860;SDS011;42744;51.094;3.490;2023-02-28T04:25:58;10.43;;;6.33;;
56860;SDS011;42744;51.094;3.490;2023-02-28T04:28:25;10.77;;;7.10;;
56860;SDS011;42744;51.094;3.490;2023-02-28T04:30:57;7.67;;;6.40;;
56860;SDS011;42744;51.094;3.490;2023-02-28T04:33:25;9.93;;;6.87;;
56860;SDS011;42744;51.094;3.490;2023-02-28T04:38:48;10.37;;;7.00;;
56860;SDS011;42744;51.094;3.490;2023-02-28T04:41:15;11.80;;;7.17;;
56860;SDS011;42744;51.094;3.490;2023-02-28T04:43:41;10.73;;;7.17;;
56860;SDS011;42744;51.094;3.490;2023-02-28T04:46:10;10.53;;;7.43;;
56860;SDS011;42744;51.094;3.490;2023-02-28T04:48:38;9.77;;;7.13;;
56860;SDS011;42744;51.094;3.490;2023-02-28T04:51:06;10.37;;;6.83;;
56860;SDS011;42744;51.094;3.490;2023-02-28T04:53:33;9.97;;;6.93;;
56860;SDS011;42744;51.094;3.490;2023-02-28T04:56:00;10.63;;;7.20;;
56860;SDS011;42744;51.094;3.490;2023-02-28T04:58:26;9.10;;;6.67;;
56860;SDS011;42744;51.094;3.490;2023-02-28T05:00:54;12.90;;;7.50;;
56860;SDS011;42744;51.094;3.490;2023-02-28T05:03:26;10.00;;;7.63;;
56860;SDS011;42744;51.094;3.490;2023-02-28T05:05:52;11.57;;;7.80;;
56860;SDS011;42744;51.094;3.490;2023-02-28T05:08:18;10.97;;;7.17;;
56860;SDS011;42744;51.094;3.490;2023-02-28T05:10:44;9.00;;;6.37;;
56860;SDS011;42744;51.094;3.490;2023-02-28T05:13:12;8.13;;;6.23;;
56860;SDS011;42744;51.094;3.490;2023-02-28T05:15:39;12.77;;;6.60;;
56860;SDS011;42744;51.094;3.490;2023-02-28T05:18:04;8.37;;;6.77;;
56860;SDS011;42744;51.094;3.490;2023-02-28T05:20:30;13.07;;;6.50;;
56860;SDS011;42744;51.094;3.490;2023-02-28T05:22:57;10.30;;;6.53;;
56860;SDS011;42744;51.094;3.490;2023-02-28T05:25:25;10.90;;;6.90;;
56860;SDS011;42744;51.094;3.490;2023-02-28T05:27:51;9.00;;;6.50;;
56860;SDS011;42744;51.094;3.490;2023-02-28T05:30:17;10.13;;;6.37;;
56860;SDS011;42744;51.094;3.490;2023-02-28T05:32:43;8.77;;;6.53;;
56860;SDS011;42744;51.094;3.490;2023-02-28T05:35:14;10.27;;;6.70;;
56860;SDS011;42744;51.094;3.490;2023-02-28T05:37:41;10.27;;;6.63;;
56860;SDS011;42744;51.094;3.490;2023-02-28T05:40:07;11.33;;;7.10;;
56860;SDS011;42744;51.094;3.490;2023-02-28T05:42:36;11.27;;;7.37;;
56860;SDS011;42744;51.094;3.490;2023-02-28T05:45:03;12.30;;;7.13;;
56860;SDS011;42744;51.094;3.490;2023-02-28T05:47:29;11.43;;;7.97;;
56860;SDS011;42744;51.094;3.490;2023-02-28T05:49:55;9.50;;;6.83;;
56860;SDS011;42744;51.094;3.490;2023-02-28T05:52:22;9.37;;;6.33;;
56860;SDS011;42744;51.094;3.490;2023-02-28T05:54:48;10.47;;;7.23;;
56860;SDS011;42744;51.094;3.490;2023-02-28T05:57:14;11.57;;;7.33;;
56860;SDS011;42744;51.094;3.490;2023-02-28T05:59:40;8.80;;;6.87;;
56860;SDS011;42744;51.094;3.490;2023-02-28T06:02:10;10.63;;;6.93;;
56860;SDS011;42744;51.094;3.490;2023-02-28T06:04:39;11.93;;;7.53;;
56860;SDS011;42744;51.094;3.490;2023-02-28T06:07:06;11.07;;;7.80;;
56860;SDS011;42744;51.094;3.490;2023-02-28T06:09:32;10.67;;;6.70;;
56860;SDS011;42744;51.094;3.490;2023-02-28T06:11:59;10.80;;;7.13;;
56860;SDS011;42744;51.094;3.490;2023-02-28T06:14:25;11.97;;;7.13;;
56860;SDS011;42744;51.094;3.490;2023-02-28T06:16:51;12.27;;;7.43;;
56860;SDS011;42744;51.094;3.490;2023-02-28T06:19:18;14.53;;;7.97;;
56860;SDS011;42744;51.094;3.490;2023-02-28T06:21:44;12.13;;;7.87;;
56860;SDS011;42744;51.094;3.490;2023-02-28T06:24:10;11.50;;;7.17;;
56860;SDS011;42744;51.094;3.490;2023-02-28T06:26:37;11.87;;;8.07;;
56860;SDS011;42744;51.094;3.490;2023-02-28T06:29:03;14.07;;;8.80;;
56860;SDS011;42744;51.094;3.490;2023-02-28T06:31:29;12.53;;;7.93;;
56860;SDS011;42744;51.094;3.490;2023-02-28T06:33:55;11.50;;;7.50;;
56860;SDS011;42744;51.094;3.490;2023-02-28T06:36:21;10.10;;;7.40;;
56860;SDS011;42744;51.094;3.490;2023-02-28T06:38:47;12.60;;;7.70;;
56860;SDS011;42744;51.094;3.490;2023-02-28T06:41:21;12.20;;;7.70;;
56860;SDS011;42744;51.094;3.490;2023-02-28T06:43:48;11.50;;;7.50;;
56860;SDS011;42744;51.094;3.490;2023-02-28T06:46:14;10.50;;;7.70;;
56860;SDS011;42744;51.094;3.490;2023-02-28T06:48:40;10.37;;;7.27;;
56860;SDS011;42744;51.094;3.490;2023-02-28T06:51:09;9.63;;;7.47;;
56860;SDS011;42744;51.094;3.490;2023-02-28T06:53:38;10.33;;;7.20;;
56860;SDS011;42744;51.094;3.490;2023-02-28T06:56:06;15.23;;;7.83;;
56860;SDS011;42744;51.094;3.490;2023-02-28T06:58:36;11.70;;;7.67;;
56860;SDS011;42744;51.094;3.490;2023-02-28T07:01:03;9.47;;;7.23;;
56860;SDS011;42744;51.094;3.490;2023-02-28T07:03:30;13.17;;;7.17;;
56860;SDS011;42744;51.094;3.490;2023-02-28T07:05:56;9.33;;;7.43;;
56860;SDS011;42744;51.094;3.490;2023-02-28T07:08:25;11.43;;;7.50;;
56860;SDS011;42744;51.094;3.490;2023-02-28T07:10:55;10.83;;;6.63;;
56860;SDS011;42744;51.094;3.490;2023-02-28T07:13:22;9.67;;;6.13;;
56860;SDS011;42744;51.094;3.490;2023-02-28T07:15:53;7.50;;;6.07;;
56860;SDS011;42744;51.094;3.490;2023-02-28T07:18:26;6.23;;;4.73;;
56860;SDS011;42744;51.094;3.490;2023-02-28T07:20:52;6.63;;;4.90;;
56860;SDS011;42744;51.094;3.490;2023-02-28T07:23:19;7.87;;;4.40;;
56860;SDS011;42744;51.094;3.490;2023-02-28T07:25:45;7.63;;;5.07;;
56860;SDS011;42744;51.094;3.490;2023-02-28T07:28:12;6.70;;;4.93;;
56860;SDS011;42744;51.094;3.490;2023-02-28T07:30:41;7.83;;;4.90;;
56860;SDS011;42744;51.094;3.490;2023-02-28T07:33:10;7.10;;;5.50;;
56860;SDS011;42744;51.094;3.490;2023-02-28T07:35:36;6.77;;;5.10;;
56860;SDS011;42744;51.094;3.490;2023-02-28T07:38:02;8.03;;;5.10;;
56860;SDS011;42744;51.094;3.490;2023-02-28T07:40:29;6.43;;;4.60;;
56860;SDS011;42744;51.094;3.490;2023-02-28T07:42:55;8.20;;;4.83;;
56860;SDS011;42744;51.094;3.490;2023-02-28T07:45:21;6.23;;;4.23;;
56860;SDS011;42744;51.094;3.490;2023-02-28T07:47:47;5.87;;;4.00;;
56860;SDS011;42744;51.094;3.490;2023-02-28T07:50:14;4.97;;;3.70;;
56860;SDS011;42744;51.094;3.490;2023-02-28T07:52:41;5.90;;;3.40;;
56860;SDS011;42744;51.094;3.490;2023-02-28T07:55:08;6.70;;;3.90;;
56860;SDS011;42744;51.094;3.490;2023-02-28T07:57:35;5.43;;;3.20;;
56860;SDS011;42744;51.094;3.490;2023-02-28T08:00:06;7.07;;;3.80;;
56860;SDS011;42744;51.094;3.490;2023-02-28T08:02:36;4.93;;;3.33;;
56860;SDS011;42744;51.094;3.490;2023-02-28T08:05:03;6.77;;;3.90;;
56860;SDS011;42744;51.094;3.490;2023-02-28T08:07:29;4.70;;;3.60;;
56860;SDS011;42744;51.094;3.490;2023-02-28T08:09:55;6.10;;;3.37;;
56860;SDS011;42744;51.094;3.490;2023-02-28T08:12:21;3.80;;;2.57;;
56860;SDS011;42744;51.094;3.490;2023-02-28T08:14:47;4.70;;;2.40;;
56860;SDS011;42744;51.094;3.490;2023-02-28T08:17:13;7.50;;;2.40;;
56860;SDS011;42744;51.094;3.490;2023-02-28T08:19:39;5.63;;;2.27;;
56860;SDS011;42744;51.094;3.490;2023-02-28T08:22:05;4.43;;;2.53;;
56860;SDS011;42744;51.094;3.490;2023-02-28T08:24:31;4.40;;;2.10;;
56860;SDS011;42744;51.094;3.490;2023-02-28T08:26:58;7.73;;;3.43;;
56860;SDS011;42744;51.094;3.490;2023-02-28T08:29:24;4.27;;;2.10;;
56860;SDS011;42744;51.094;3.490;2023-02-28T08:31:50;3.20;;;1.90;;
56860;SDS011;42744;51.094;3.490;2023-02-28T08:34:16;4.27;;;2.47;;
56860;SDS011;42744;51.094;3.490;2023-02-28T08:36:42;5.47;;;2.10;;
56860;SDS011;42744;51.094;3.490;2023-02-28T08:39:10;4.30;;;1.90;;
56860;SDS011;42744;51.094;3.490;2023-02-28T08:41:36;2.77;;;1.80;;
56860;SDS011;42744;51.094;3.490;2023-02-28T08:44:02;2.80;;;1.83;;
56860;SDS011;42744;51.094;3.490;2023-02-28T08:46:28;2.67;;;1.70;;
56860;SDS011;42744;51.094;3.490;2023-02-28T08:48:55;3.63;;;2.17;;
56860;SDS011;42744;51.094;3.490;2023-02-28T08:51:25;2.67;;;1.93;;
56860;SDS011;42744;51.094;3.490;2023-02-28T08:53:52;4.53;;;2.40;;
56860;SDS011;42744;51.094;3.490;2023-02-28T08:56:19;4.30;;;2.10;;
56860;SDS011;42744;51.094;3.490;2023-02-28T08:58:47;4.97;;;1.80;;
56860;SDS011;42744;51.094;3.490;2023-02-28T09:01:18;3.37;;;2.20;;
56860;SDS011;42744;51.094;3.490;2023-02-28T09:03:46;4.70;;;2.23;;
56860;SDS011;42744;51.094;3.490;2023-02-28T09:06:13;2.90;;;1.73;;
56860;SDS011;42744;51.094;3.490;2023-02-28T09:08:40;4.83;;;2.23;;
56860;SDS011;42744;51.094;3.490;2023-02-28T09:11:07;4.70;;;2.20;;
56860;SDS011;42744;51.094;3.490;2023-02-28T09:13:34;2.80;;;2.00;;
56860;SDS011;42744;51.094;3.490;2023-02-28T09:16:01;3.87;;;2.20;;
56860;SDS011;42744;51.094;3.490;2023-02-28T09:18:29;4.87;;;2.60;;
56860;SDS011;42744;51.094;3.490;2023-02-28T09:20:55;6.43;;;2.37;;
56860;SDS011;42744;51.094;3.490;2023-02-28T09:23:23;2.30;;;1.87;;
56860;SDS011;42744;51.094;3.490;2023-02-28T09:25:51;5.03;;;2.10;;
56860;SDS011;42744;51.094;3.490;2023-02-28T09:28:19;5.80;;;2.00;;
56860;SDS011;42744;51.094;3.490;2023-02-28T09:30:46;4.03;;;1.90;;
56860;SDS011;42744;51.094;3.490;2023-02-28T09:33:15;3.50;;;2.50;;
56860;SDS011;42744;51.094;3.490;2023-02-28T09:35:42;3.47;;;1.97;;
56860;SDS011;42744;51.094;3.490;2023-02-28T09:38:09;6.33;;;2.43;;
56860;SDS011;42744;51.094;3.490;2023-02-28T09:40:41;3.17;;;2.50;;
56860;SDS011;42744;51.094;3.490;2023-02-28T09:43:15;4.53;;;2.97;;
56860;SDS011;42744;51.094;3.490;2023-02-28T09:45:45;4.20;;;2.27;;
56860;SDS011;42744;51.094;3.490;2023-02-28T09:48:38;4.93;;;2.80;;
56860;SDS011;42744;51.094;3.490;2023-02-28T09:53:59;8.47;;;5.83;;
56860;SDS011;42744;51.094;3.490;2023-02-28T09:56:30;5.93;;;3.53;;
56860;SDS011;42744;51.094;3.490;2023-02-28T09:59:00;9.10;;;4.43;;
56860;SDS011;42744;51.094;3.490;2023-02-28T10:01:41;6.60;;;3.80;;
56860;SDS011;42744;51.094;3.490;2023-02-28T10:04:37;5.83;;;3.13;;
56860;SDS011;42744;51.094;3.490;2023-02-28T10:10:14;7.43;;;3.47;;
56860;SDS011;42744;51.094;3.490;2023-02-28T10:12:47;5.43;;;2.87;;
56860;SDS011;42744;51.094;3.490;2023-02-28T10:15:18;4.63;;;3.10;;
56860;SDS011;42744;51.094;3.490;2023-02-28T10:17:47;4.63;;;3.00;;
56860;SDS011;42744;51.094;3.490;2023-02-28T10:20:20;4.50;;;2.90;;
56860;SDS011;42744;51.094;3.490;2023-02-28T10:25:47;7.23;;;3.13;;
56860;SDS011;42744;51.094;3.490;2023-02-28T10:28:19;5.30;;;2.90;;
56860;SDS011;42744;51.094;3.490;2023-02-28T10:30:49;4.00;;;2.60;;
56860;SDS011;42744;51.094;3.490;2023-02-28T10:35:54;4.90;;;2.83;;
56860;SDS011;42744;51.094;3.490;2023-02-28T10:38:24;3.57;;;2.60;;
56860;SDS011;42744;51.094;3.490;2023-02-28T10:41:10;3.73;;;2.63;;
56860;SDS011;42744;51.094;3.490;2023-02-28T10:43:40;5.50;;;2.80;;
56860;SDS011;42744;51.094;3.490;2023-02-28T10:48:38;3.53;;;2.43;;
56860;SDS011;42744;51.094;3.490;2023-02-28T10:51:10;3.90;;;2.60;;
56860;SDS011;42744;51.094;3.490;2023-02-28T10:53:39;6.77;;;2.40;;
56860;SDS011;42744;51.094;3.490;2023-02-28T10:56:20;2.97;;;2.23;;
56860;SDS011;42744;51.094;3.490;2023-02-28T11:04:32;4.33;;;1.70;;
56860;SDS011;42744;51.094;3.490;2023-02-28T11:09:40;2.63;;;1.60;;
56860;SDS011;42744;51.094;3.490;2023-02-28T11:12:19;4.17;;;1.70;;
56860;SDS011;42744;51.094;3.490;2023-02-28T11:14:49;2.97;;;1.70;;
56860;SDS011;42744;51.094;3.490;2023-02-28T11:17:22;3.70;;;1.57;;
56860;SDS011;42744;51.094;3.490;2023-02-28T11:19:57;3.93;;;1.87;;
56860;SDS011;42744;51.094;3.490;2023-02-28T11:22:29;3.03;;;1.50;;
56860;SDS011;42744;51.094;3.490;2023-02-28T11:25:20;3.43;;;1.80;;
56860;SDS011;42744;51.094;3.490;2023-02-28T11:27:53;2.73;;;1.80;;
56860;SDS011;42744;51.094;3.490;2023-02-28T11:33:50;5.00;;;2.20;;
56860;SDS011;42744;51.094;3.490;2023-02-28T11:36:03;4.20;;;2.50;;
56860;SDS011;42744;51.094;3.490;2023-02-28T11:38:35;4.63;;;2.50;;
56860;SDS011;42744;51.094;3.490;2023-02-28T11:49:30;5.27;;;2.83;;
56860;SDS011;42744;51.094;3.490;2023-02-28T11:57:49;4.53;;;2.30;;
56860;SDS011;42744;51.094;3.490;2023-02-28T12:03:22;3.57;;;2.30;;
56860;SDS011;42744;51.094;3.490;2023-02-28T12:11:32;2.27;;;1.90;;
56860;SDS011;42744;51.094;3.490;2023-02-28T12:16:45;2.87;;;2.03;;
56860;SDS011;42744;51.094;3.490;2023-02-28T12:20:05;4.13;;;2.43;;
56860;SDS011;42744;51.094;3.490;2023-02-28T12:23:15;3.70;;;2.37;;
56860;SDS011;42744;51.094;3.490;2023-02-28T12:26:02;5.00;;;2.53;;
56860;SDS011;42744;51.094;3.490;2023-02-28T12:28:36;2.77;;;2.30;;
56860;SDS011;42744;51.094;3.490;2023-02-28T12:31:20;4.23;;;2.70;;
56860;SDS011;42744;51.094;3.490;2023-02-28T12:33:55;4.23;;;3.13;;
56860;SDS011;42744;51.094;3.490;2023-02-28T12:36:27;4.20;;;2.60;;
56860;SDS011;42744;51.094;3.490;2023-02-28T12:38:55;4.20;;;2.73;;
56860;SDS011;42744;51.094;3.490;2023-02-28T12:41:47;4.17;;;2.70;;
56860;SDS011;42744;51.094;3.490;2023-02-28T12:44:20;4.20;;;2.33;;
56860;SDS011;42744;51.094;3.490;2023-02-28T12:46:55;3.37;;;2.17;;
56860;SDS011;42744;51.094;3.490;2023-02-28T12:49:27;3.27;;;2.20;;
56860;SDS011;42744;51.094;3.490;2023-02-28T12:52:02;3.33;;;2.13;;
56860;SDS011;42744;51.094;3.490;2023-02-28T13:00:35;3.37;;;2.37;;
56860;SDS011;42744;51.094;3.490;2023-02-28T13:09:02;3.13;;;2.47;;
56860;SDS011;42744;51.094;3.490;2023-02-28T13:11:40;5.10;;;2.60;;
56860;SDS011;42744;51.094;3.490;2023-02-28T13:19:37;2.73;;;1.50;;
56860;SDS011;42744;51.094;3.490;2023-02-28T13:22:05;2.37;;;1.30;;
56860;SDS011;42744;51.094;3.490;2023-02-28T13:25:49;2.43;;;1.60;;
56860;SDS011;42744;51.094;3.490;2023-02-28T13:27:58;2.40;;;1.57;;
56860;SDS011;42744;51.094;3.490;2023-02-28T13:33:33;1.93;;;1.60;;
56860;SDS011;42744;51.094;3.490;2023-02-28T13:36:07;1.70;;;1.40;;
56860;SDS011;42744;51.094;3.490;2023-02-28T13:38:35;4.00;;;1.63;;
56860;SDS011;42744;51.094;3.490;2023-02-28T13:46:35;2.83;;;1.57;;
56860;SDS011;42744;51.094;3.490;2023-02-28T13:49:25;1.83;;;1.47;;
56860;SDS011;42744;51.094;3.490;2023-02-28T14:05:36;2.53;;;1.90;;
56860;SDS011;42744;51.094;3.490;2023-02-28T14:11:15;4.03;;;1.70;;
56860;SDS011;42744;51.094;3.490;2023-02-28T14:13:53;2.27;;;1.63;;
56860;SDS011;42744;51.094;3.490;2023-02-28T14:16:26;3.00;;;1.73;;
56860;SDS011;42744;51.094;3.490;2023-02-28T14:38:29;2.30;;;1.83;;
56860;SDS011;42744;51.094;3.490;2023-02-28T14:41:00;4.50;;;2.10;;
56860;SDS011;42744;51.094;3.490;2023-02-28T14:43:28;2.33;;;1.87;;
56860;SDS011;42744;51.094;3.490;2023-02-28T14:45:55;2.60;;;2.00;;
56860;SDS011;42744;51.094;3.490;2023-02-28T14:48:23;3.03;;;2.10;;
56860;SDS011;42744;51.094;3.490;2023-02-28T14:50:52;3.50;;;1.90;;
56860;SDS011;42744;51.094;3.490;2023-02-28T14:53:27;5.73;;;2.37;;
56860;SDS011;42744;51.094;3.490;2023-02-28T14:55:54;2.90;;;1.87;;
56860;SDS011;42744;51.094;3.490;2023-02-28T14:58:28;2.90;;;2.20;;
56860;SDS011;42744;51.094;3.490;2023-02-28T15:00:57;5.47;;;2.70;;
56860;SDS011;42744;51.094;3.490;2023-02-28T15:03:38;3.00;;;1.93;;
56860;SDS011;42744;51.094;3.490;2023-02-28T15:06:12;3.33;;;2.17;;
56860;SDS011;42744;51.094;3.490;2023-02-28T15:08:43;2.30;;;2.00;;
56860;SDS011;42744;51.094;3.490;2023-02-28T15:11:14;4.17;;;2.30;;
56860;SDS011;42744;51.094;3.490;2023-02-28T15:16:25;3.53;;;2.33;;
56860;SDS011;42744;51.094;3.490;2023-02-28T15:19:02;2.13;;;1.73;;
56860;SDS011;42744;51.094;3.490;2023-02-28T15:21:30;2.10;;;1.90;;
56860;SDS011;42744;51.094;3.490;2023-02-28T15:26:32;3.30;;;2.40;;
56860;SDS011;42744;51.094;3.490;2023-02-28T15:29:22;3.47;;;2.37;;
56860;SDS011;42744;51.094;3.490;2023-02-28T15:32:16;3.17;;;2.10;;
56860;SDS011;42744;51.094;3.490;2023-02-28T15:34:49;4.17;;;2.03;;
56860;SDS011;42744;51.094;3.490;2023-02-28T15:39:55;3.47;;;2.87;;
56860;SDS011;42744;51.094;3.490;2023-02-28T15:42:23;4.80;;;2.70;;
56860;SDS011;42744;51.094;3.490;2023-02-28T15:44:54;4.33;;;2.90;;
56860;SDS011;42744;51.094;3.490;2023-02-28T15:47:21;4.43;;;3.10;;
56860;SDS011;42744;51.094;3.490;2023-02-28T15:50:04;3.97;;;3.27;;
56860;SDS011;42744;51.094;3.490;2023-02-28T15:52:40;5.57;;;3.10;;
56860;SDS011;42744;51.094;3.490;2023-02-28T15:57:40;4.60;;;2.90;;
56860;SDS011;42744;51.094;3.490;2023-02-28T16:00:10;5.13;;;2.70;;
56860;SDS011;42744;51.094;3.490;2023-02-28T16:02:41;4.10;;;2.90;;
56860;SDS011;42744;51.094;3.490;2023-02-28T16:07:40;3.67;;;2.90;;
56860;SDS011;42744;51.094;3.490;2023-02-28T16:10:13;4.27;;;2.80;;
56860;SDS011;42744;51.094;3.490;2023-02-28T16:12:40;4.13;;;2.73;;
56860;SDS011;42744;51.094;3.490;2023-02-28T16:15:23;6.10;;;3.03;;
56860;SDS011;42744;51.094;3.490;2023-02-28T16:17:52;4.10;;;2.27;;
56860;SDS011;42744;51.094;3.490;2023-02-28T16:20:23;4.47;;;2.70;;
56860;SDS011;42744;51.094;3.490;2023-02-28T16:22:54;5.27;;;2.90;;
56860;SDS011;42744;51.094;3.490;2023-02-28T16:25:26;5.67;;;2.63;;
56860;SDS011;42744;51.094;3.490;2023-02-28T16:28:10;6.13;;;3.70;;
56860;SDS011;42744;51.094;3.490;2023-02-28T16:30:43;5.97;;;2.40;;
56860;SDS011;42744;51.094;3.490;2023-02-28T16:33:09;3.27;;;2.97;;
56860;SDS011;42744;51.094;3.490;2023-02-28T16:35:35;3.17;;;2.63;;
56860;SDS011;42744;51.094;3.490;2023-02-28T16:38:01;3.97;;;2.80;;
56860;SDS011;42744;51.094;3.490;2023-02-28T16:40:28;7.63;;;6.83;;
56860;SDS011;42744;51.094;3.490;2023-02-28T16:43:00;6.80;;;4.37;;
56860;SDS011;42744;51.094;3.490;2023-02-28T16:45:33;6.27;;;3.50;;
56860;SDS011;42744;51.094;3.490;2023-02-28T16:47:59;5.10;;;3.20;;
56860;SDS011;42744;51.094;3.490;2023-02-28T16:50:26;7.30;;;3.67;;
56860;SDS011;42744;51.094;3.490;2023-02-28T16:52:54;7.90;;;4.20;;
56860;SDS011;42744;51.094;3.490;2023-02-28T16:55:22;6.63;;;3.90;;
56860;SDS011;42744;51.094;3.490;2023-02-28T16:57:53;4.20;;;3.60;;
56860;SDS011;42744;51.094;3.490;2023-02-28T17:00:24;7.77;;;3.73;;
56860;SDS011;42744;51.094;3.490;2023-02-28T17:02:52;6.27;;;4.93;;
56860;SDS011;42744;51.094;3.490;2023-02-28T17:05:19;5.23;;;3.30;;
56860;SDS011;42744;51.094;3.490;2023-02-28T17:07:46;3.57;;;3.13;;
56860;SDS011;42744;51.094;3.490;2023-02-28T17:10:16;5.73;;;3.80;;
56860;SDS011;42744;51.094;3.490;2023-02-28T17:12:47;6.43;;;4.83;;
56860;SDS011;42744;51.094;3.490;2023-02-28T17:15:14;5.90;;;4.03;;
56860;SDS011;42744;51.094;3.490;2023-02-28T17:17:41;8.43;;;3.90;;
56860;SDS011;42744;51.094;3.490;2023-02-28T17:20:13;5.13;;;4.00;;
56860;SDS011;42744;51.094;3.490;2023-02-28T17:22:39;5.40;;;4.20;;
56860;SDS011;42744;51.094;3.490;2023-02-28T17:25:05;6.60;;;4.00;;
56860;SDS011;42744;51.094;3.490;2023-02-28T17:27:33;8.77;;;6.10;;
56860;SDS011;42744;51.094;3.490;2023-02-28T17:29:59;6.97;;;5.13;;
56860;SDS011;42744;51.094;3.490;2023-02-28T17:32:26;5.67;;;5.07;;
56860;SDS011;42744;51.094;3.490;2023-02-28T17:34:53;7.60;;;5.50;;
56860;SDS011;42744;51.094;3.490;2023-02-28T17:37:19;5.47;;;4.47;;
56860;SDS011;42744;51.094;3.490;2023-02-28T17:39:45;23.17;;;13.67;;
56860;SDS011;42744;51.094;3.490;2023-02-28T17:42:11;34.70;;;21.20;;
56860;SDS011;42744;51.094;3.490;2023-02-28T17:44:37;8.03;;;5.03;;